sensor_id;sensor_type;location;lat;lon;timestamp;pressure;altitude;pressure_sealevel;temperature;humidity
10978;BME280;5542;48.272;10.794;2023-08-12T00:01:59;96137.34;;;20.13;70.92
10978;BME280;5542;48.272;10.794;2023-08-12T00:04:25;96142.94;;;20.12;71.00
10978;BME280;5542;48.272;10.794;2023-08-12T00:06:52;96141.06;;;20.12;71.03
10978;BME280;5542;48.272;10.794;2023-08-12T00:09:18;96142.19;;;20.06;71.14
10978;BME280;5542;48.272;10.794;2023-08-12T00:11:45;96129.66;;;20.02;71.30
10978;BME280;5542;48.272;10.794;2023-08-12T00:14:12;96134.75;;;19.98;71.46
10978;BME280;5542;48.272;10.794;2023-08-12T00:16:40;96134.22;;;20.01;71.18
10978;BME280;5542;48.272;10.794;2023-08-12T00:19:06;96136.63;;;19.98;71.54
10978;BME280;5542;48.272;10.794;2023-08-12T00:21:33;96138.00;;;19.95;71.52
10978;BME280;5542;48.272;10.794;2023-08-12T00:24:00;96128.41;;;19.94;71.63
10978;BME280;5542;48.272;10.794;2023-08-12T00:26:26;96128.97;;;19.86;71.78
10978;BME280;5542;48.272;10.794;2023-08-12T00:28:53;96120.47;;;19.79;72.09
10978;BME280;5542;48.272;10.794;2023-08-12T00:31:20;96126.38;;;19.76;72.24
10978;BME280;5542;48.272;10.794;2023-08-12T00:33:47;96124.53;;;19.71;72.04
10978;BME280;5542;48.272;10.794;2023-08-12T00:36:14;96122.69;;;19.66;72.27
10978;BME280;5542;48.272;10.794;2023-08-12T00:38:40;96122.97;;;19.65;72.25
10978;BME280;5542;48.272;10.794;2023-08-12T00:41:07;96123.78;;;19.60;72.46
10978;BME280;5542;48.272;10.794;2023-08-12T00:43:34;96122.44;;;19.58;72.60
10978;BME280;5542;48.272;10.794;2023-08-12T00:46:00;96114.97;;;19.55;72.24
10978;BME280;5542;48.272;10.794;2023-08-12T00:48:28;96112.59;;;19.53;72.46
10978;BME280;5542;48.272;10.794;2023-08-12T00:50:56;96114.19;;;19.54;72.57
10978;BME280;5542;48.272;10.794;2023-08-12T00:53:22;96109.66;;;19.55;72.37
10978;BME280;5542;48.272;10.794;2023-08-12T00:55:49;96110.47;;;19.50;72.57
10978;BME280;5542;48.272;10.794;2023-08-12T00:58:16;96100.13;;;19.43;72.70
10978;BME280;5542;48.272;10.794;2023-08-12T01:00:43;96095.59;;;19.39;73.07
10978;BME280;5542;48.272;10.794;2023-08-12T01:03:10;96099.34;;;19.38;72.91
10978;BME280;5542;48.272;10.794;2023-08-12T01:05:37;96098.03;;;19.35;72.86
10978;BME280;5542;48.272;10.794;2023-08-12T01:08:05;96099.09;;;19.34;72.80
10978;BME280;5542;48.272;10.794;2023-08-12T01:10:35;96096.19;;;19.31;73.01
10978;BME280;5542;48.272;10.794;2023-08-12T01:13:09;96098.34;;;19.29;73.13
10978;BME280;5542;48.272;10.794;2023-08-12T01:15:40;96092.22;;;19.23;73.31
10978;BME280;5542;48.272;10.794;2023-08-12T01:18:10;96087.44;;;19.20;73.36
10978;BME280;5542;48.272;10.794;2023-08-12T01:20:37;96090.63;;;19.17;73.63
10978;BME280;5542;48.272;10.794;2023-08-12T01:23:10;96079.47;;;19.15;73.60
10978;BME280;5542;48.272;10.794;2023-08-12T01:25:38;96069.34;;;19.12;73.60
10978;BME280;5542;48.272;10.794;2023-08-12T01:28:05;96071.22;;;19.11;73.84
10978;BME280;5542;48.272;10.794;2023-08-12T01:30:32;96067.22;;;19.09;73.64
10978;BME280;5542;48.272;10.794;2023-08-12T01:33:04;96064.31;;;19.05;73.68
10978;BME280;5542;48.272;10.794;2023-08-12T01:35:37;96062.72;;;19.04;73.56
10978;BME280;5542;48.272;10.794;2023-08-12T01:38:09;96056.34;;;19.00;73.67
10978;BME280;5542;48.272;10.794;2023-08-12T01:40:38;96063.28;;;18.96;73.65
10978;BME280;5542;48.272;10.794;2023-08-12T01:43:05;96055.28;;;18.96;73.33
10978;BME280;5542;48.272;10.794;2023-08-12T01:45:33;96055.03;;;18.92;73.37
10978;BME280;5542;48.272;10.794;2023-08-12T01:48:00;96049.44;;;18.89;73.50
10978;BME280;5542;48.272;10.794;2023-08-12T01:50:26;96059.31;;;18.88;73.63
10978;BME280;5542;48.272;10.794;2023-08-12T01:52:53;96058.00;;;18.86;73.65
10978;BME280;5542;48.272;10.794;2023-08-12T01:55:21;96056.41;;;18.80;73.90
10978;BME280;5542;48.272;10.794;2023-08-12T01:57:47;96054.53;;;18.75;74.14
10978;BME280;5542;48.272;10.794;2023-08-12T02:00:15;96060.16;;;18.74;73.94
10978;BME280;5542;48.272;10.794;2023-08-12T02:02:42;96054.84;;;18.68;73.99
10978;BME280;5542;48.272;10.794;2023-08-12T02:05:11;96060.69;;;18.65;74.20
10978;BME280;5542;48.272;10.794;2023-08-12T02:07:37;96060.69;;;18.65;74.30
10978;BME280;5542;48.272;10.794;2023-08-12T02:10:05;96057.50;;;18.63;74.33
10978;BME280;5542;48.272;10.794;2023-08-12T02:12:33;96057.50;;;18.63;73.98
10978;BME280;5542;48.272;10.794;2023-08-12T02:14:59;96056.41;;;18.64;73.45
10978;BME280;5542;48.272;10.794;2023-08-12T02:17:26;96054.31;;;18.61;73.58
10978;BME280;5542;48.272;10.794;2023-08-12T02:19:52;96051.91;;;18.60;73.57
10978;BME280;5542;48.272;10.794;2023-08-12T02:22:19;96054.34;;;18.56;73.69
10978;BME280;5542;48.272;10.794;2023-08-12T02:24:46;96052.72;;;18.50;74.08
10978;BME280;5542;48.272;10.794;2023-08-12T02:27:12;96048.22;;;18.46;74.30
10978;BME280;5542;48.272;10.794;2023-08-12T02:29:40;96047.16;;;18.41;74.57
10978;BME280;5542;48.272;10.794;2023-08-12T02:32:07;96048.50;;;18.39;74.67
10978;BME280;5542;48.272;10.794;2023-08-12T02:34:33;96046.34;;;18.41;74.65
10978;BME280;5542;48.272;10.794;2023-08-12T02:37:00;96042.91;;;18.40;74.60
10978;BME280;5542;48.272;10.794;2023-08-12T02:39:26;96045.56;;;18.35;74.64
10978;BME280;5542;48.272;10.794;2023-08-12T02:41:53;96042.13;;;18.30;75.08
10978;BME280;5542;48.272;10.794;2023-08-12T02:44:19;96037.34;;;18.27;75.21
10978;BME280;5542;48.272;10.794;2023-08-12T02:46:47;96035.47;;;18.27;74.96
10978;BME280;5542;48.272;10.794;2023-08-12T02:49:14;96035.22;;;18.24;74.89
10978;BME280;5542;48.272;10.794;2023-08-12T02:51:40;96034.97;;;18.20;75.13
10978;BME280;5542;48.272;10.794;2023-08-12T02:54:07;96033.63;;;18.17;75.21
10978;BME280;5542;48.272;10.794;2023-08-12T02:56:34;96033.63;;;18.17;75.07
10978;BME280;5542;48.272;10.794;2023-08-12T02:59:00;96030.16;;;18.17;74.84
10978;BME280;5542;48.272;10.794;2023-08-12T03:01:27;96028.84;;;18.09;75.25
10978;BME280;5542;48.272;10.794;2023-08-12T03:03:55;96026.72;;;18.06;75.53
10978;BME280;5542;48.272;10.794;2023-08-12T03:06:22;96032.56;;;18.03;75.70
10978;BME280;5542;48.272;10.794;2023-08-12T03:08:48;96025.94;;;18.01;75.62
10978;BME280;5542;48.272;10.794;2023-08-12T03:11:15;96023.53;;;17.99;75.48
10978;BME280;5542;48.272;10.794;2023-08-12T03:13:43;96024.88;;;18.02;75.05
10978;BME280;5542;48.272;10.794;2023-08-12T03:16:11;96030.47;;;17.95;75.35
10978;BME280;5542;48.272;10.794;2023-08-12T03:18:39;96029.41;;;17.91;75.59
10978;BME280;5542;48.272;10.794;2023-08-12T03:21:07;96030.44;;;17.85;75.73
10978;BME280;5542;48.272;10.794;2023-08-12T03:23:35;96029.94;;;17.78;75.51
10978;BME280;5542;48.272;10.794;2023-08-12T03:26:01;96027.53;;;17.76;75.76
10978;BME280;5542;48.272;10.794;2023-08-12T03:28:28;96029.09;;;17.67;76.11
10978;BME280;5542;48.272;10.794;2023-08-12T03:30:55;96029.09;;;17.67;76.30
10978;BME280;5542;48.272;10.794;2023-08-12T03:33:21;96034.66;;;17.65;76.31
10978;BME280;5542;48.272;10.794;2023-08-12T03:35:49;96026.44;;;17.62;76.47
10978;BME280;5542;48.272;10.794;2023-08-12T03:38:17;96021.38;;;17.60;76.69
10978;BME280;5542;48.272;10.794;2023-08-12T03:40:43;96022.97;;;17.56;76.86
10978;BME280;5542;48.272;10.794;2023-08-12T03:43:10;96024.81;;;17.56;76.98
10978;BME280;5542;48.272;10.794;2023-08-12T03:45:39;96013.94;;;17.52;76.95
10978;BME280;5542;48.272;10.794;2023-08-12T03:48:06;96021.91;;;17.57;76.54
10978;BME280;5542;48.272;10.794;2023-08-12T03:50:33;96018.47;;;17.57;76.61
10978;BME280;5542;48.272;10.794;2023-08-12T03:53:00;96028.28;;;17.56;76.64
10978;BME280;5542;48.272;10.794;2023-08-12T03:55:30;96025.38;;;17.53;76.87
10978;BME280;5542;48.272;10.794;2023-08-12T03:57:57;96023.25;;;17.55;76.67
10978;BME280;5542;48.272;10.794;2023-08-12T04:00:23;96019.78;;;17.49;76.87
10978;BME280;5542;48.272;10.794;2023-08-12T04:02:50;96020.28;;;17.46;77.16
10978;BME280;5542;48.272;10.794;2023-08-12T04:05:17;96030.41;;;17.44;77.45
10978;BME280;5542;48.272;10.794;2023-08-12T04:07:43;96025.09;;;17.44;77.25
10978;BME280;5542;48.272;10.794;2023-08-12T04:10:10;96025.38;;;17.43;77.34
10978;BME280;5542;48.272;10.794;2023-08-12T04:12:40;96028.28;;;17.46;76.76
10978;BME280;5542;48.272;10.794;2023-08-12T04:15:07;96024.81;;;17.46;76.63
10978;BME280;5542;48.272;10.794;2023-08-12T04:17:34;96025.09;;;17.44;76.89
10978;BME280;5542;48.272;10.794;2023-08-12T04:20:01;96024.81;;;17.40;77.17
10978;BME280;5542;48.272;10.794;2023-08-12T04:22:31;96023.22;;;17.39;77.33
10978;BME280;5542;48.272;10.794;2023-08-12T04:24:57;96024.81;;;17.40;77.23
10978;BME280;5542;48.272;10.794;2023-08-12T04:27:24;96021.88;;;17.42;76.83
10978;BME280;5542;48.272;10.794;2023-08-12T04:29:52;96024.28;;;17.38;77.04
10978;BME280;5542;48.272;10.794;2023-08-12T04:32:18;96019.78;;;17.39;77.09
10978;BME280;5542;48.272;10.794;2023-08-12T04:34:45;96021.38;;;17.40;76.95
10978;BME280;5542;48.272;10.794;2023-08-12T04:37:12;96027.47;;;17.40;77.09
10978;BME280;5542;48.272;10.794;2023-08-12T04:39:38;96025.09;;;17.39;77.35
10978;BME280;5542;48.272;10.794;2023-08-12T04:42:05;96033.84;;;17.39;77.60
10978;BME280;5542;48.272;10.794;2023-08-12T04:44:32;96025.09;;;17.39;77.76
10978;BME280;5542;48.272;10.794;2023-08-12T04:47:00;96028.03;;;17.43;77.69
10978;BME280;5542;48.272;10.794;2023-08-12T04:49:26;96029.63;;;17.44;77.71
10978;BME280;5542;48.272;10.794;2023-08-12T04:51:53;96020.28;;;17.46;78.00
10978;BME280;5542;48.272;10.794;2023-08-12T04:54:19;96014.19;;;17.51;78.40
10978;BME280;5542;48.272;10.794;2023-08-12T04:56:46;96010.22;;;17.53;79.17
10978;BME280;5542;48.272;10.794;2023-08-12T04:59:12;96016.84;;;17.56;79.56
10978;BME280;5542;48.272;10.794;2023-08-12T05:01:39;96019.50;;;17.61;80.15
10978;BME280;5542;48.272;10.794;2023-08-12T05:04:07;96014.75;;;17.63;80.44
10978;BME280;5542;48.272;10.794;2023-08-12T05:06:33;96018.47;;;17.67;80.64
10978;BME280;5542;48.272;10.794;2023-08-12T05:09:00;96015.00;;;17.66;81.00
10978;BME280;5542;48.272;10.794;2023-08-12T05:11:26;96020.84;;;17.69;81.40
10978;BME280;5542;48.272;10.794;2023-08-12T05:13:53;96020.84;;;17.63;82.19
10978;BME280;5542;48.272;10.794;2023-08-12T05:16:19;96024.81;;;17.61;82.86
10978;BME280;5542;48.272;10.794;2023-08-12T05:18:46;96019.50;;;17.61;82.98
10978;BME280;5542;48.272;10.794;2023-08-12T05:21:14;96020.84;;;17.58;83.00
10978;BME280;5542;48.272;10.794;2023-08-12T05:23:40;96025.09;;;17.54;83.43
10978;BME280;5542;48.272;10.794;2023-08-12T05:26:07;96021.66;;;17.59;83.85
10978;BME280;5542;48.272;10.794;2023-08-12T05:28:33;96022.72;;;17.63;83.45
10978;BME280;5542;48.272;10.794;2023-08-12T05:31:00;96017.66;;;17.61;83.60
10978;BME280;5542;48.272;10.794;2023-08-12T05:33:26;96011.28;;;17.62;83.73
10978;BME280;5542;48.272;10.794;2023-08-12T05:35:53;96012.88;;;17.63;83.87
10978;BME280;5542;48.272;10.794;2023-08-12T05:38:21;96013.94;;;17.73;83.94
10978;BME280;5542;48.272;10.794;2023-08-12T05:40:47;96008.38;;;17.84;83.56
10978;BME280;5542;48.272;10.794;2023-08-12T05:43:14;96010.22;;;17.94;82.73
10978;BME280;5542;48.272;10.794;2023-08-12T05:45:40;96019.28;;;17.98;83.03
10978;BME280;5542;48.272;10.794;2023-08-12T05:48:07;96018.47;;;18.03;83.04
10978;BME280;5542;48.272;10.794;2023-08-12T05:50:34;96017.13;;;18.10;82.96
10978;BME280;5542;48.272;10.794;2023-08-12T05:53:00;96019.25;;;18.13;83.52
10978;BME280;5542;48.272;10.794;2023-08-12T05:55:28;96005.69;;;18.15;83.75
10978;BME280;5542;48.272;10.794;2023-08-12T05:57:55;96008.56;;;18.34;82.83
10978;BME280;5542;48.272;10.794;2023-08-12T06:00:21;96009.63;;;18.43;82.67
10978;BME280;5542;48.272;10.794;2023-08-12T06:02:48;96007.69;;;18.59;81.89
10978;BME280;5542;48.272;10.794;2023-08-12T06:05:14;96000.72;;;18.78;82.20
10978;BME280;5542;48.272;10.794;2023-08-12T06:07:41;96001.19;;;18.96;81.88
10978;BME280;5542;48.272;10.794;2023-08-12T06:10:08;95999.78;;;19.08;80.92
10978;BME280;5542;48.272;10.794;2023-08-12T06:12:36;96001.78;;;19.27;80.27
10978;BME280;5542;48.272;10.794;2023-08-12T06:15:03;95993.16;;;19.45;78.58
10978;BME280;5542;48.272;10.794;2023-08-12T06:17:30;96001.59;;;19.57;77.84
10978;BME280;5542;48.272;10.794;2023-08-12T06:19:56;95997.25;;;19.72;77.18
10978;BME280;5542;48.272;10.794;2023-08-12T06:22:23;95990.78;;;19.78;77.49
10978;BME280;5542;48.272;10.794;2023-08-12T06:24:49;95991.59;;;19.78;77.96
10978;BME280;5542;48.272;10.794;2023-08-12T06:27:16;95994.44;;;19.87;78.10
10978;BME280;5542;48.272;10.794;2023-08-12T06:29:46;95997.56;;;19.99;77.78
10978;BME280;5542;48.272;10.794;2023-08-12T06:32:12;96002.59;;;20.01;77.89
10978;BME280;5542;48.272;10.794;2023-08-12T06:34:40;95997.50;;;20.04;78.07
10978;BME280;5542;48.272;10.794;2023-08-12T06:37:06;95995.28;;;20.11;78.44
10978;BME280;5542;48.272;10.794;2023-08-12T06:39:33;95995.00;;;20.13;78.12
10978;BME280;5542;48.272;10.794;2023-08-12T06:41:59;95994.97;;;20.18;78.04
10978;BME280;5542;48.272;10.794;2023-08-12T06:44:26;95992.56;;;20.16;78.38
10978;BME280;5542;48.272;10.794;2023-08-12T06:46:53;95991.91;;;20.30;77.66
10978;BME280;5542;48.272;10.794;2023-08-12T06:49:20;95991.28;;;20.38;76.83
10978;BME280;5542;48.272;10.794;2023-08-12T06:51:47;95989.84;;;20.45;76.47
10978;BME280;5542;48.272;10.794;2023-08-12T06:54:13;95998.44;;;20.48;77.37
10978;BME280;5542;48.272;10.794;2023-08-12T06:56:40;95999.91;;;20.59;76.54
10978;BME280;5542;48.272;10.794;2023-08-12T06:59:06;96001.78;;;20.58;76.68
10978;BME280;5542;48.272;10.794;2023-08-12T07:01:33;95996.91;;;20.65;76.06
10978;BME280;5542;48.272;10.794;2023-08-12T07:04:01;95993.31;;;20.75;75.47
10978;BME280;5542;48.272;10.794;2023-08-12T07:06:27;95992.28;;;20.71;74.92
10978;BME280;5542;48.272;10.794;2023-08-12T07:08:54;95998.72;;;20.70;74.97
10978;BME280;5542;48.272;10.794;2023-08-12T07:11:21;95992.78;;;20.73;75.35
10978;BME280;5542;48.272;10.794;2023-08-12T07:13:47;95987.66;;;20.77;75.62
10978;BME280;5542;48.272;10.794;2023-08-12T07:16:14;95993.50;;;20.79;76.55
10978;BME280;5542;48.272;10.794;2023-08-12T07:18:40;95991.47;;;20.94;77.41
10978;BME280;5542;48.272;10.794;2023-08-12T07:21:08;96005.97;;;21.07;78.22
10978;BME280;5542;48.272;10.794;2023-08-12T07:23:35;95996.91;;;21.27;76.66
10978;BME280;5542;48.272;10.794;2023-08-12T07:26:01;96005.94;;;21.50;76.21
10978;BME280;5542;48.272;10.794;2023-08-12T07:28:28;95998.91;;;21.54;75.30
10978;BME280;5542;48.272;10.794;2023-08-12T07:30:54;95988.06;;;21.64;75.81
10978;BME280;5542;48.272;10.794;2023-08-12T07:33:21;95993.28;;;21.88;74.63
10978;BME280;5542;48.272;10.794;2023-08-12T07:35:47;95989.63;;;21.98;73.59
10978;BME280;5542;48.272;10.794;2023-08-12T07:38:15;95996.44;;;22.09;73.88
10978;BME280;5542;48.272;10.794;2023-08-12T07:40:42;95999.94;;;22.23;73.54
10978;BME280;5542;48.272;10.794;2023-08-12T07:43:08;95997.19;;;22.42;74.21
10978;BME280;5542;48.272;10.794;2023-08-12T07:45:35;96010.31;;;22.71;72.17
10978;BME280;5542;48.272;10.794;2023-08-12T07:48:02;96016.69;;;22.89;70.38
10978;BME280;5542;48.272;10.794;2023-08-12T07:50:29;96013.25;;;23.11;68.79
10978;BME280;5542;48.272;10.794;2023-08-12T07:52:56;96007.28;;;23.28;68.50
10978;BME280;5542;48.272;10.794;2023-08-12T07:55:23;96008.00;;;23.56;65.84
10978;BME280;5542;48.272;10.794;2023-08-12T07:57:50;96010.94;;;23.68;65.44
10978;BME280;5542;48.272;10.794;2023-08-12T08:00:17;96012.19;;;23.85;65.48
10978;BME280;5542;48.272;10.794;2023-08-12T08:02:43;96010.69;;;24.01;66.19
10978;BME280;5542;48.272;10.794;2023-08-12T08:05:10;96012.75;;;24.26;65.50
10978;BME280;5542;48.272;10.794;2023-08-12T08:07:36;96006.34;;;24.45;64.96
10978;BME280;5542;48.272;10.794;2023-08-12T08:10:04;96003.97;;;24.74;68.08
10978;BME280;5542;48.272;10.794;2023-08-12T08:12:32;95994.44;;;25.17;64.49
10978;BME280;5542;48.272;10.794;2023-08-12T08:14:58;95992.69;;;25.38;62.75
10978;BME280;5542;48.272;10.794;2023-08-12T08:17:25;95994.59;;;25.38;63.54
10978;BME280;5542;48.272;10.794;2023-08-12T08:19:51;95997.63;;;25.45;64.63
10978;BME280;5542;48.272;10.794;2023-08-12T08:22:18;95999.34;;;25.58;60.56
10978;BME280;5542;48.272;10.794;2023-08-12T08:24:44;96001.72;;;25.60;59.53
10978;BME280;5542;48.272;10.794;2023-08-12T08:27:11;95999.81;;;25.43;60.66
10978;BME280;5542;48.272;10.794;2023-08-12T08:29:39;96005.38;;;25.38;61.56
10978;BME280;5542;48.272;10.794;2023-08-12T08:32:06;96008.69;;;25.35;63.77
10978;BME280;5542;48.272;10.794;2023-08-12T08:34:33;96004.88;;;25.44;63.41
10978;BME280;5542;48.272;10.794;2023-08-12T08:36:59;96005.50;;;25.59;62.19
10978;BME280;5542;48.272;10.794;2023-08-12T08:39:26;96006.16;;;25.64;61.33
10978;BME280;5542;48.272;10.794;2023-08-12T08:41:54;96001.09;;;25.80;61.55
10978;BME280;5542;48.272;10.794;2023-08-12T08:44:22;96000.94;;;25.76;60.28
10978;BME280;5542;48.272;10.794;2023-08-12T08:46:52;95996.66;;;25.84;57.60
10978;BME280;5542;48.272;10.794;2023-08-12T08:49:20;95999.38;;;25.84;58.26
10978;BME280;5542;48.272;10.794;2023-08-12T08:51:47;95996.78;;;26.05;54.03
10978;BME280;5542;48.272;10.794;2023-08-12T08:54:14;96008.06;;;25.90;56.67
10978;BME280;5542;48.272;10.794;2023-08-12T08:56:41;95997.91;;;25.95;54.17
10978;BME280;5542;48.272;10.794;2023-08-12T08:59:09;96001.72;;;25.94;53.46
10978;BME280;5542;48.272;10.794;2023-08-12T09:01:36;95999.97;;;25.98;54.69
10978;BME280;5542;48.272;10.794;2023-08-12T09:04:05;96002.31;;;26.17;52.97
10978;BME280;5542;48.272;10.794;2023-08-12T09:06:34;96003.88;;;26.18;54.73
10978;BME280;5542;48.272;10.794;2023-08-12T09:09:03;96001.47;;;26.43;53.00
10978;BME280;5542;48.272;10.794;2023-08-12T09:11:33;95998.38;;;26.62;55.29
10978;BME280;5542;48.272;10.794;2023-08-12T09:14:00;95999.59;;;27.11;53.65
10978;BME280;5542;48.272;10.794;2023-08-12T09:16:27;95990.28;;;27.63;50.82
10978;BME280;5542;48.272;10.794;2023-08-12T09:18:55;95984.69;;;27.89;49.76
10978;BME280;5542;48.272;10.794;2023-08-12T09:21:23;95997.56;;;28.04;47.08
10978;BME280;5542;48.272;10.794;2023-08-12T09:23:49;95994.31;;;28.11;46.72
10978;BME280;5542;48.272;10.794;2023-08-12T09:26:19;96000.75;;;28.06;47.63
10978;BME280;5542;48.272;10.794;2023-08-12T09:28:46;96000.06;;;28.09;47.57
10978;BME280;5542;48.272;10.794;2023-08-12T09:31:22;95994.72;;;28.00;48.65
10978;BME280;5542;48.272;10.794;2023-08-12T09:33:50;95995.78;;;28.08;49.32
10978;BME280;5542;48.272;10.794;2023-08-12T09:36:17;96008.72;;;28.02;50.51
10978;BME280;5542;48.272;10.794;2023-08-12T09:38:46;96003.53;;;28.10;48.92
10978;BME280;5542;48.272;10.794;2023-08-12T09:41:12;95995.53;;;28.46;48.04
10978;BME280;5542;48.272;10.794;2023-08-12T09:43:40;96000.31;;;28.74;50.56
10978;BME280;5542;48.272;10.794;2023-08-12T09:46:10;95989.78;;;29.21;45.61
10978;BME280;5542;48.272;10.794;2023-08-12T09:48:37;95988.41;;;29.27;43.34
10978;BME280;5542;48.272;10.794;2023-08-12T09:51:04;95979.75;;;29.22;44.60
10978;BME280;5542;48.272;10.794;2023-08-12T09:53:32;95979.28;;;29.32;44.02
10978;BME280;5542;48.272;10.794;2023-08-12T09:56:05;95983.97;;;29.07;47.34
10978;BME280;5542;48.272;10.794;2023-08-12T09:58:33;95985.53;;;29.20;45.87
10978;BME280;5542;48.272;10.794;2023-08-12T10:01:02;95981.50;;;29.42;43.00
10978;BME280;5542;48.272;10.794;2023-08-12T10:03:29;95983.63;;;29.49;43.87
10978;BME280;5542;48.272;10.794;2023-08-12T10:05:56;95980.38;;;29.83;41.42
10978;BME280;5542;48.272;10.794;2023-08-12T10:08:23;95980.84;;;30.29;40.59
10978;BME280;5542;48.272;10.794;2023-08-12T10:10:51;95974.16;;;30.27;40.54
10978;BME280;5542;48.272;10.794;2023-08-12T10:13:19;95980.63;;;30.22;41.56
10978;BME280;5542;48.272;10.794;2023-08-12T10:15:47;95994.16;;;30.06;41.75
10978;BME280;5542;48.272;10.794;2023-08-12T10:18:14;95974.09;;;30.39;38.15
10978;BME280;5542;48.272;10.794;2023-08-12T10:20:43;95976.97;;;30.30;38.53
10978;BME280;5542;48.272;10.794;2023-08-12T10:23:14;95979.59;;;30.43;41.33
10978;BME280;5542;48.272;10.794;2023-08-12T10:25:41;95973.66;;;30.53;39.72
10978;BME280;5542;48.272;10.794;2023-08-12T10:28:09;95966.94;;;30.78;39.70
10978;BME280;5542;48.272;10.794;2023-08-12T10:30:39;95971.72;;;31.01;38.80
10978;BME280;5542;48.272;10.794;2023-08-12T10:33:07;95962.06;;;31.03;37.62
10978;BME280;5542;48.272;10.794;2023-08-12T10:35:41;95968.28;;;31.04;38.54
10978;BME280;5542;48.272;10.794;2023-08-12T10:38:08;95960.16;;;31.23;36.89
10978;BME280;5542;48.272;10.794;2023-08-12T10:40:35;95956.41;;;31.28;36.35
10978;BME280;5542;48.272;10.794;2023-08-12T10:43:01;95960.06;;;31.35;37.20
10978;BME280;5542;48.272;10.794;2023-08-12T10:45:42;95959.84;;;31.64;37.61
10978;BME280;5542;48.272;10.794;2023-08-12T10:48:16;95953.72;;;31.86;37.38
10978;BME280;5542;48.272;10.794;2023-08-12T10:50:43;95949.41;;;31.85;36.15
10978;BME280;5542;48.272;10.794;2023-08-12T10:53:22;95940.47;;;31.84;36.72
10978;BME280;5542;48.272;10.794;2023-08-12T10:55:49;95948.22;;;31.82;36.18
10978;BME280;5542;48.272;10.794;2023-08-12T10:58:25;95946.28;;;31.83;36.98
10978;BME280;5542;48.272;10.794;2023-08-12T11:00:54;95928.66;;;31.77;36.55
10978;BME280;5542;48.272;10.794;2023-08-12T11:03:21;95945.00;;;31.80;37.64
10978;BME280;5542;48.272;10.794;2023-08-12T11:05:48;95942.03;;;32.05;35.79
10978;BME280;5542;48.272;10.794;2023-08-12T11:08:16;95943.94;;;32.04;36.88
10978;BME280;5542;48.272;10.794;2023-08-12T11:10:43;95932.34;;;32.07;36.38
10978;BME280;5542;48.272;10.794;2023-08-12T11:13:10;95929.94;;;32.25;35.93
10978;BME280;5542;48.272;10.794;2023-08-12T11:15:38;95927.28;;;32.29;35.64
10978;BME280;5542;48.272;10.794;2023-08-12T11:18:10;95928.25;;;32.40;36.41
10978;BME280;5542;48.272;10.794;2023-08-12T11:20:37;95922.88;;;32.44;36.78
10978;BME280;5542;48.272;10.794;2023-08-12T11:23:05;95921.16;;;32.35;35.45
10978;BME280;5542;48.272;10.794;2023-08-12T11:25:33;95918.72;;;32.30;35.80
10978;BME280;5542;48.272;10.794;2023-08-12T11:28:00;95923.47;;;32.33;36.07
10978;BME280;5542;48.272;10.794;2023-08-12T11:30:27;95925.84;;;31.93;36.02
10978;BME280;5542;48.272;10.794;2023-08-12T11:32:54;95921.88;;;31.86;36.47
10978;BME280;5542;48.272;10.794;2023-08-12T11:35:24;95925.16;;;31.76;37.62
10978;BME280;5542;48.272;10.794;2023-08-12T11:37:52;95921.09;;;31.86;36.03
10978;BME280;5542;48.272;10.794;2023-08-12T11:40:21;95922.44;;;31.76;38.21
10978;BME280;5542;48.272;10.794;2023-08-12T11:42:49;95932.19;;;31.58;37.70
10978;BME280;5542;48.272;10.794;2023-08-12T11:45:18;95932.75;;;31.48;38.94
10978;BME280;5542;48.272;10.794;2023-08-12T11:47:46;95929.59;;;31.46;38.79
10978;BME280;5542;48.272;10.794;2023-08-12T11:50:18;95932.69;;;31.44;38.91
10978;BME280;5542;48.272;10.794;2023-08-12T11:52:47;95929.84;;;31.21;39.67
10978;BME280;5542;48.272;10.794;2023-08-12T11:55:14;95930.56;;;30.83;40.67
10978;BME280;5542;48.272;10.794;2023-08-12T11:57:43;95932.78;;;30.77;40.11
10978;BME280;5542;48.272;10.794;2023-08-12T12:00:11;95929.34;;;30.65;41.75
10978;BME280;5542;48.272;10.794;2023-08-12T12:02:41;95932.25;;;30.56;41.07
10978;BME280;5542;48.272;10.794;2023-08-12T12:05:09;95930.50;;;30.16;42.56
10978;BME280;5542;48.272;10.794;2023-08-12T12:07:36;95930.38;;;30.13;42.88
10978;BME280;5542;48.272;10.794;2023-08-12T12:10:05;95932.38;;;30.00;43.59
10978;BME280;5542;48.272;10.794;2023-08-12T12:12:33;95935.09;;;30.00;43.55
10978;BME280;5542;48.272;10.794;2023-08-12T12:15:00;95931.06;;;29.94;43.97
10978;BME280;5542;48.272;10.794;2023-08-12T12:17:26;95931.81;;;29.78;44.78
10978;BME280;5542;48.272;10.794;2023-08-12T12:19:54;95928.59;;;29.89;45.18
10978;BME280;5542;48.272;10.794;2023-08-12T12:22:26;95920.31;;;29.97;44.68
10978;BME280;5542;48.272;10.794;2023-08-12T12:24:53;95916.72;;;30.09;43.56
10978;BME280;5542;48.272;10.794;2023-08-12T12:27:20;95927.72;;;30.00;43.48
10978;BME280;5542;48.272;10.794;2023-08-12T12:29:47;95920.88;;;30.19;41.11
10978;BME280;5542;48.272;10.794;2023-08-12T12:32:14;95912.81;;;30.22;40.52
10978;BME280;5542;48.272;10.794;2023-08-12T12:34:40;95906.59;;;30.38;38.10
10978;BME280;5542;48.272;10.794;2023-08-12T12:37:07;95900.31;;;30.49;37.73
10978;BME280;5542;48.272;10.794;2023-08-12T12:39:33;95905.34;;;30.67;39.12
10978;BME280;5542;48.272;10.794;2023-08-12T12:42:00;95899.69;;;30.56;39.43
10978;BME280;5542;48.272;10.794;2023-08-12T12:44:28;95908.88;;;30.67;38.12
10978;BME280;5542;48.272;10.794;2023-08-12T12:46:54;95902.72;;;30.86;37.59
10978;BME280;5542;48.272;10.794;2023-08-12T12:49:21;95901.06;;;30.81;38.56
10978;BME280;5542;48.272;10.794;2023-08-12T12:51:48;95904.09;;;30.96;39.06
10978;BME280;5542;48.272;10.794;2023-08-12T12:54:14;95906.72;;;30.92;39.16
10978;BME280;5542;48.272;10.794;2023-08-12T12:56:41;95910.16;;;30.89;38.81
10978;BME280;5542;48.272;10.794;2023-08-12T12:59:08;95897.06;;;30.95;38.50
10978;BME280;5542;48.272;10.794;2023-08-12T13:01:36;95893.44;;;31.06;37.93